Arcata, CA (95518)

3:39 AM PST on February 13, 2016 (GMT -0800)
Woodland Heights | | Change Station
CLOSE
Current Station
Personal Weather Station
Location: Arcata, CA
Elevation: 194 ft
Nearby Weather Stations

Elev 194 ft 40.89 °N, 124.07 °W | Updated 14 minutes ago

Fog
Fog
47.6 °F
Feels Like 48 °F
N
0.0
Wind Variable Wind from East
Gusts 0.0 mph

Today
High -- | Low -- °F
--% Chance of Precip.
Yesterday
High -- | Low -- °F
Precip. -- in
Pressure 30.34 in
Visibility 2.0 miles
Clouds Few 100 ft
Windchill 48 °F
Dew Point 47 °F
Humidity 97%
Rainfall 0.00 in
Snow Depth Not available.
7:13 AM 5:48 PM
Waxing Crescent, 30% visible
SPECI KACV 131135Z AUTO 00000KT 2SM R32/1600VP6000FT BR FEW001 07/07 A3034 RMK AO2 T00720067
Pressure 30.34 in
Visibility 2.0 miles
Clouds Few 100 ft
Windchill 48 °F
Dew Point 47 °F
Humidity 97%
Rainfall 0.00 in
Snow Depth Not available.
7:13 AM 5:48 PM
Waxing Crescent, 30% visible
SPECI KACV 131135Z AUTO 00000KT 2SM R32/1600VP6000FT BR FEW001 07/07 A3034 RMK AO2 T00720067

10-Day Weather Forecast

Almanac

Astronomy

Feb. 13, 2016 Rise Set
Actual Time
Civil Twilight
Nautical Twilight
Astronomical Twilight
Moon
Length of Visible Light
Length of Day
Tomorrow will be .
, % of the Moon is Illuminated

Today's Extremes

State Highs State Lows

Community

WunderPhotos

Upload Photos

1,892,541 photos uploaded!

WunderBlog® & News

Nearby

Air Quality

  Air Quality AQ Index Pollutant
Not available.

Snow Depth

Station Depth Elevation

Earthquake Activity

City Distance Mag. Time & Date
Minimum magnitude displayed is 2.5.

Coastal Water Temperatures

Place Temperature

Stations

Nearby Weather Stations

Station Location Temp. Windchill Dew Point Humidity Wind Precip. Elev Updated Type
                   

Watches & Warnings

There are currently no watches in effect.